createdAt,value
2018-09-21T00:01:38.812Z,0.0
2018-09-21T04:02:40.708Z,0.0
2018-09-21T04:12:54.907Z,0.0
2018-09-21T04:37:53.767Z,0.0
2018-09-21T04:48:45.745Z,0.0
2018-09-21T05:10:31.770Z,0.0
2018-09-21T05:54:45.755Z,20.0
2018-09-21T06:05:55.654Z,35.0
2018-09-21T06:28:51.214Z,60.0
2018-09-21T06:39:07.097Z,45.0
2018-09-21T06:49:22.907Z,55.0
2018-09-21T06:59:38.680Z,55.0
2018-09-21T07:09:52.770Z,90.0
2018-09-21T07:20:50.486Z,70.0
2018-09-21T07:31:06.264Z,70.0
2018-09-21T07:41:19.238Z,50.0
2018-09-21T07:51:34.947Z,45.0
2018-09-21T08:02:23.188Z,50.0
2018-09-21T08:12:37.594Z,85.0
2018-09-21T08:23:25.346Z,105.0
2018-09-21T08:34:12.705Z,35.0
2018-09-21T08:40:24.944Z,15.0
2018-09-21T08:50:38.855Z,85.0
2018-09-21T09:01:24.844Z,80.0
2018-09-21T09:11:38.895Z,85.0
2018-09-21T09:22:23.898Z,100.0
2018-09-21T09:32:38.314Z,110.0
2018-09-21T09:42:50.789Z,140.0
2018-09-21T09:53:02.583Z,140.0
2018-09-21T10:03:48.226Z,310.0
2018-09-21T10:14:00.460Z,350.0
2018-09-21T10:24:45.474Z,470.0
2018-09-21T10:34:59.367Z,565.0
2018-09-21T10:45:44.051Z,685.0
2018-09-21T10:55:56.604Z,1200.0
2018-09-21T11:06:10.408Z,815.0
2018-09-21T11:16:24.733Z,325.0
2018-09-21T11:27:09.451Z,355.0
2018-09-21T11:37:54.567Z,245.0
2018-09-21T11:48:08.494Z,90.0
2018-09-21T11:58:22.881Z,530.0
2018-09-21T12:08:36.749Z,320.0
2018-09-21T12:18:51.149Z,720.0
2018-09-21T12:29:35.820Z,400.0
2018-09-21T12:39:50.026Z,395.0
2018-09-21T12:50:02.359Z,435.0
2018-09-21T13:00:14.869Z,305.0
2018-09-21T13:10:29.111Z,295.0
2018-09-21T13:20:43.417Z,380.0
2018-09-21T13:30:57.388Z,2055.0
2018-09-21T13:41:43.166Z,2365.0
2018-09-21T13:51:57.272Z,135.0
2018-09-21T14:00:41.452Z,375.0
2018-09-21T14:10:56.476Z,200.0
2018-09-21T14:21:11.352Z,1740.0
2018-09-21T14:31:25.805Z,1675.0
2018-09-21T14:41:40.517Z,1835.0
2018-09-21T14:51:54.942Z,225.0
2018-09-21T15:02:09.572Z,240.0
2018-09-21T15:12:24.714Z,220.0
2018-09-21T15:23:09.045Z,175.0
2018-09-21T15:33:21.191Z,230.0
2018-09-21T15:44:07.663Z,180.0
2018-09-21T15:54:22.010Z,170.0
2018-09-21T16:04:36.627Z,150.0
2018-09-21T16:14:51.476Z,115.0
2018-09-21T16:25:39.661Z,105.0
2018-09-21T16:35:53.652Z,90.0
2018-09-21T16:46:06.322Z,70.0
2018-09-21T16:56:20.382Z,40.0
2018-09-21T17:06:34.490Z,30.0
2018-09-21T17:17:31.099Z,20.0
2018-09-21T17:28:16.152Z,5.0
2018-09-21T17:38:29.922Z,0.0
2018-09-21T17:48:43.969Z,0.0
2018-09-21T17:58:58.783Z,0.0
2018-09-21T18:09:46.164Z,0.0
2018-09-21T18:20:32.878Z,0.0
2018-09-21T18:31:18.157Z,0.0
2018-09-21T18:41:39.956Z,0.0
2018-09-21T18:52:24.941Z,0.0
2018-09-21T19:03:10.777Z,0.0
2018-09-21T19:13:24.843Z,0.0
2018-09-21T19:23:39.713Z,0.0
2018-09-21T19:33:53.603Z,0.0
2018-09-21T19:44:07.968Z,0.0
2018-09-21T19:54:52.603Z,0.0
2018-09-21T20:05:38.329Z,0.0
2018-09-21T20:15:52.652Z,0.0
2018-09-21T20:26:53.842Z,0.0
2018-09-21T20:38:49.082Z,0.0
2018-09-21T20:49:27.455Z,0.0
2018-09-21T21:01:01.834Z,0.0
2018-09-21T21:11:20.973Z,0.0
2018-09-21T21:22:07.682Z,0.0
2018-09-21T21:32:21.448Z,0.0
2018-09-21T21:42:36.327Z,0.0
2018-09-21T21:53:02.595Z,0.0
2018-09-21T22:04:17.868Z,0.0
2018-09-21T22:14:45.980Z,0.0
2018-09-21T22:25:46.945Z,0.0
2018-09-21T22:37:10.609Z,0.0
2018-09-21T22:47:25.101Z,0.0
2018-09-21T22:57:41.244Z,0.0
2018-09-21T23:07:55.861Z,0.0
2018-09-21T23:18:10.735Z,0.0
2018-09-21T23:38:39.441Z,0.0
2018-09-21T23:49:10.727Z,0.0
2018-09-21T23:59:40.641Z,0.0
